createdAt,value
2022-10-28T00:00:23.789Z,0.00
2022-10-28T00:01:23.888Z,0.00
2022-10-28T00:02:23.817Z,0.00
2022-10-28T00:03:23.915Z,0.00
2022-10-28T00:04:23.799Z,0.00
2022-10-28T00:05:23.755Z,0.00
2022-10-28T00:06:23.705Z,0.00
2022-10-28T00:07:23.710Z,0.00
2022-10-28T00:08:23.689Z,0.00
2022-10-28T00:09:23.705Z,0.00
2022-10-28T00:10:23.673Z,0.00
2022-10-28T00:11:23.670Z,0.00
2022-10-28T00:12:23.746Z,0.00
2022-10-28T00:13:23.661Z,0.00
2022-10-28T00:14:23.640Z,0.00
2022-10-28T00:15:23.632Z,0.00
2022-10-28T00:16:23.637Z,0.00
2022-10-28T00:18:23.620Z,0.00
2022-10-28T00:19:23.679Z,0.00
2022-10-28T00:20:23.593Z,0.00
2022-10-28T00:21:23.624Z,0.00
2022-10-28T00:22:23.618Z,0.00
2022-10-28T00:23:23.618Z,0.00
2022-10-28T00:24:23.604Z,0.00
2022-10-28T00:25:23.572Z,0.00
2022-10-28T00:26:23.575Z,0.00
2022-10-28T00:27:23.571Z,0.00
2022-10-28T00:28:23.522Z,0.00
2022-10-28T00:29:23.529Z,0.00
2022-10-28T00:30:23.611Z,0.00
2022-10-28T00:31:23.504Z,0.00
2022-10-28T00:32:23.515Z,0.00
2022-10-28T00:33:23.669Z,0.00
2022-10-28T00:34:23.513Z,0.00
2022-10-28T00:35:23.483Z,0.00
2022-10-28T00:36:23.704Z,0.00
2022-10-28T00:37:23.530Z,0.00
2022-10-28T00:38:23.482Z,0.00
2022-10-28T00:39:23.476Z,0.00
2022-10-28T00:40:23.451Z,0.00
2022-10-28T00:41:23.460Z,0.00
2022-10-28T00:42:24.059Z,0.00
2022-10-28T00:43:23.488Z,0.00
2022-10-28T00:44:23.434Z,0.00
2022-10-28T00:45:23.423Z,0.00
2022-10-28T00:46:23.427Z,0.00
2022-10-28T00:47:23.418Z,0.00
2022-10-28T00:48:23.420Z,0.00
2022-10-28T00:49:23.381Z,0.00
2022-10-28T00:50:23.362Z,0.00
2022-10-28T00:51:23.357Z,0.00
2022-10-28T00:52:23.347Z,0.00
2022-10-28T00:53:23.368Z,0.00
2022-10-28T00:54:23.339Z,0.00
2022-10-28T00:55:23.345Z,0.00
2022-10-28T00:56:23.387Z,0.00
2022-10-28T00:57:23.539Z,0.00
2022-10-28T00:58:23.344Z,0.00
2022-10-28T00:59:23.333Z,0.00
2022-10-28T01:00:23.332Z,0.00
2022-10-28T01:01:23.622Z,0.00
2022-10-28T01:02:23.488Z,0.00
2022-10-28T01:03:23.281Z,0.00
2022-10-28T01:04:23.292Z,0.00
2022-10-28T01:05:23.311Z,0.00
2022-10-28T01:06:23.506Z,0.00
2022-10-28T01:07:23.272Z,0.00
2022-10-28T01:08:23.254Z,0.00
2022-10-28T01:09:23.401Z,0.00
2022-10-28T01:10:23.232Z,0.00
2022-10-28T01:11:23.272Z,0.00
2022-10-28T01:12:23.224Z,0.00
2022-10-28T01:13:23.272Z,0.00
2022-10-28T01:14:23.235Z,0.00
2022-10-28T01:15:23.208Z,0.00
2022-10-28T01:16:23.260Z,0.00
2022-10-28T01:17:23.205Z,0.00
2022-10-28T01:18:23.309Z,0.00
2022-10-28T01:19:23.217Z,0.00
2022-10-28T01:20:23.194Z,0.00
2022-10-28T01:21:23.196Z,0.00
2022-10-28T01:22:23.199Z,0.00
2022-10-28T01:23:23.355Z,0.00
2022-10-28T01:24:23.139Z,0.00
2022-10-28T01:25:23.212Z,0.00
2022-10-28T01:26:23.127Z,0.00
2022-10-28T01:27:23.123Z,0.00
2022-10-28T01:28:23.127Z,0.00
2022-10-28T01:29:23.117Z,0.00
2022-10-28T01:30:23.107Z,0.00
2022-10-28T01:31:23.344Z,0.00
2022-10-28T01:32:23.123Z,0.00
2022-10-28T01:33:23.119Z,0.00
2022-10-28T01:34:23.097Z,0.00
2022-10-28T01:35:23.116Z,0.00
2022-10-28T01:36:23.075Z,0.00
2022-10-28T01:37:23.078Z,0.00
2022-10-28T01:38:23.056Z,0.00
2022-10-28T01:39:23.048Z,0.00
2022-10-28T01:40:23.042Z,0.00
2022-10-28T01:41:23.195Z,0.00
2022-10-28T01:42:23.025Z,0.00
2022-10-28T01:43:23.032Z,0.00
2022-10-28T01:44:23.034Z,0.00
2022-10-28T01:45:23.019Z,0.00
2022-10-28T01:46:23.007Z,0.00
2022-10-28T01:47:23.009Z,0.00
2022-10-28T01:48:22.983Z,0.00
2022-10-28T01:49:23.028Z,0.00
2022-10-28T01:50:22.998Z,0.00
2022-10-28T01:51:23.090Z,0.00
2022-10-28T01:52:22.966Z,0.00
2022-10-28T01:53:22.979Z,0.00
2022-10-28T01:54:22.933Z,0.00
2022-10-28T01:55:22.962Z,0.00
2022-10-28T01:56:22.949Z,0.00
2022-10-28T01:57:22.951Z,0.00
2022-10-28T01:58:22.993Z,0.00
2022-10-28T01:59:22.936Z,0.00
2022-10-28T02:00:22.917Z,0.00
2022-10-28T02:01:23.046Z,0.00
2022-10-28T02:02:23.012Z,0.00
2022-10-28T02:03:22.900Z,0.00
2022-10-28T02:04:22.893Z,0.00
2022-10-28T02:05:22.902Z,0.00
2022-10-28T02:06:22.951Z,0.00
2022-10-28T02:07:22.938Z,0.00
2022-10-28T02:08:22.871Z,0.00
2022-10-28T02:09:22.852Z,0.00
2022-10-28T02:10:22.851Z,0.00
2022-10-28T02:11:22.897Z,0.00
2022-10-28T02:12:22.923Z,0.00
2022-10-28T02:13:23.073Z,0.00
2022-10-28T02:14:23.044Z,0.00
2022-10-28T02:15:22.855Z,0.00
2022-10-28T02:16:22.843Z,0.00
2022-10-28T02:17:22.865Z,0.00
2022-10-28T02:18:22.784Z,0.00
2022-10-28T02:19:22.840Z,0.00
2022-10-28T02:20:22.797Z,0.00
2022-10-28T02:21:22.800Z,0.00
2022-10-28T02:22:22.768Z,0.00
2022-10-28T02:23:22.745Z,0.00
2022-10-28T02:24:22.784Z,0.00
2022-10-28T02:25:22.731Z,0.00
2022-10-28T02:26:22.766Z,0.00
2022-10-28T02:27:22.737Z,0.00
2022-10-28T02:28:22.763Z,0.00
2022-10-28T02:29:22.760Z,0.00
2022-10-28T02:30:22.709Z,0.00
2022-10-28T02:31:22.696Z,0.00
2022-10-28T02:32:22.679Z,0.00
2022-10-28T02:33:22.744Z,0.00
2022-10-28T02:34:22.750Z,0.00
2022-10-28T02:35:22.716Z,0.00
2022-10-28T02:36:22.688Z,0.00
2022-10-28T02:37:22.691Z,0.00
2022-10-28T02:38:22.670Z,0.00
2022-10-28T02:39:22.659Z,0.00
2022-10-28T02:40:22.646Z,0.00
2022-10-28T02:41:22.713Z,0.00
2022-10-28T02:42:22.598Z,0.00
2022-10-28T02:43:22.814Z,0.00
2022-10-28T02:44:22.629Z,0.00
2022-10-28T02:45:22.743Z,0.00
2022-10-28T02:46:22.636Z,0.00
2022-10-28T02:47:22.610Z,0.00
2022-10-28T02:48:22.588Z,0.00
2022-10-28T02:49:22.600Z,0.00
2022-10-28T02:50:22.609Z,0.00
2022-10-28T02:51:22.585Z,0.00
2022-10-28T02:52:22.583Z,0.00
2022-10-28T02:53:22.710Z,0.00
2022-10-28T02:54:22.580Z,0.00
2022-10-28T02:55:22.766Z,0.00
2022-10-28T02:56:22.583Z,0.00
2022-10-28T02:57:22.559Z,0.00
2022-10-28T02:58:22.530Z,0.00
2022-10-28T02:59:22.546Z,0.00
2022-10-28T03:00:22.490Z,0.00
2022-10-28T03:01:22.700Z,0.00
2022-10-28T03:02:22.573Z,0.00
2022-10-28T03:03:22.701Z,0.00
2022-10-28T03:04:22.520Z,0.00
2022-10-28T03:05:22.471Z,0.00
2022-10-28T03:06:22.552Z,0.00
2022-10-28T03:07:22.710Z,0.00
2022-10-28T03:08:22.485Z,0.00
2022-10-28T03:09:22.448Z,0.00
2022-10-28T03:10:22.426Z,0.00
2022-10-28T03:11:22.427Z,0.00
2022-10-28T03:12:22.417Z,0.00
2022-10-28T03:13:22.444Z,0.00
2022-10-28T03:14:22.405Z,0.00
2022-10-28T03:15:22.365Z,0.00
2022-10-28T03:16:22.387Z,0.00
2022-10-28T03:17:22.427Z,0.00
2022-10-28T03:18:22.393Z,0.00
2022-10-28T03:19:22.360Z,0.00
2022-10-28T03:20:22.419Z,0.00
2022-10-28T03:21:22.340Z,0.00
2022-10-28T03:22:22.329Z,0.00
2022-10-28T03:23:22.348Z,0.00
2022-10-28T03:24:22.313Z,0.00
2022-10-28T03:25:22.339Z,0.00
2022-10-28T03:26:22.298Z,0.00
2022-10-28T03:27:22.312Z,0.00
2022-10-28T03:28:22.274Z,0.00
2022-10-28T03:29:22.273Z,0.00
2022-10-28T03:30:22.271Z,0.00
2022-10-28T03:31:22.483Z,0.00
2022-10-28T03:33:22.307Z,0.00
2022-10-28T03:34:22.269Z,0.00
2022-10-28T03:35:22.274Z,0.00
2022-10-28T03:36:22.209Z,0.00
2022-10-28T03:37:22.262Z,0.00
2022-10-28T03:38:22.253Z,0.00
2022-10-28T03:39:22.211Z,0.00
2022-10-28T03:40:22.241Z,0.00
2022-10-28T03:41:22.194Z,0.00
2022-10-28T03:42:22.388Z,0.00
2022-10-28T03:43:22.189Z,0.00
2022-10-28T03:44:22.168Z,0.00
2022-10-28T03:45:22.198Z,0.00
2022-10-28T03:46:22.189Z,0.00
2022-10-28T03:47:22.179Z,0.00
2022-10-28T03:48:22.136Z,0.00
2022-10-28T03:49:22.181Z,0.00
2022-10-28T03:50:22.132Z,0.00
2022-10-28T03:51:22.139Z,0.00
2022-10-28T03:52:22.132Z,0.00
2022-10-28T03:53:22.114Z,0.00
2022-10-28T03:54:22.108Z,0.00
2022-10-28T03:55:22.105Z,0.00
2022-10-28T03:56:22.117Z,0.00
2022-10-28T03:57:22.087Z,0.00
2022-10-28T03:58:22.081Z,0.00
2022-10-28T03:59:22.080Z,0.00
2022-10-28T04:00:22.078Z,0.00
2022-10-28T04:01:22.204Z,0.00
2022-10-28T04:02:22.137Z,0.00
2022-10-28T04:03:22.041Z,0.00
2022-10-28T04:04:22.045Z,0.00
2022-10-28T04:05:22.080Z,0.00
2022-10-28T04:06:22.041Z,0.00
2022-10-28T04:07:22.001Z,0.00
2022-10-28T04:08:22.012Z,0.00
2022-10-28T04:09:21.985Z,0.00
2022-10-28T04:10:21.989Z,0.00
2022-10-28T04:11:21.992Z,0.00
2022-10-28T04:12:21.999Z,0.00
2022-10-28T04:13:21.978Z,0.00
2022-10-28T04:14:21.998Z,0.00
2022-10-28T04:15:21.978Z,0.00
2022-10-28T04:16:21.955Z,0.00
2022-10-28T04:17:21.977Z,0.00
2022-10-28T04:18:21.928Z,0.00
2022-10-28T04:19:21.905Z,0.00
2022-10-28T04:20:22.112Z,0.00
2022-10-28T04:21:21.921Z,0.00
2022-10-28T04:22:21.899Z,0.00
2022-10-28T04:23:21.907Z,0.00
2022-10-28T04:24:21.937Z,0.00
2022-10-28T04:25:22.080Z,0.00
2022-10-28T04:26:21.898Z,0.00
2022-10-28T04:27:21.881Z,0.00
2022-10-28T04:28:21.893Z,0.00
2022-10-28T04:29:21.879Z,0.00
2022-10-28T04:30:21.863Z,0.00
2022-10-28T04:31:21.867Z,0.00
2022-10-28T04:32:21.848Z,0.00
2022-10-28T04:33:21.865Z,0.00
2022-10-28T04:34:21.836Z,0.00
2022-10-28T04:35:21.836Z,0.00
2022-10-28T04:36:21.809Z,0.00
2022-10-28T04:37:21.863Z,0.00
2022-10-28T04:38:21.840Z,0.00
2022-10-28T04:39:21.801Z,0.00
2022-10-28T04:40:21.807Z,0.00
2022-10-28T04:41:21.790Z,0.00
2022-10-28T04:42:21.760Z,0.00
2022-10-28T04:43:21.776Z,0.00
2022-10-28T04:44:21.747Z,0.00
2022-10-28T04:45:21.760Z,0.00
2022-10-28T04:46:21.782Z,0.00
2022-10-28T04:47:21.729Z,0.00
2022-10-28T04:48:21.774Z,0.00
2022-10-28T04:49:21.717Z,0.00
2022-10-28T04:50:21.713Z,0.00
2022-10-28T04:51:21.704Z,0.00
2022-10-28T04:52:21.736Z,0.00
2022-10-28T04:53:21.723Z,0.00
2022-10-28T04:54:21.686Z,0.00
2022-10-28T04:55:21.693Z,0.00
2022-10-28T04:56:21.880Z,0.00
2022-10-28T04:57:21.665Z,0.00
2022-10-28T04:58:21.690Z,0.00
2022-10-28T04:59:21.666Z,0.00
2022-10-28T05:00:21.634Z,0.00
2022-10-28T05:01:21.859Z,0.00
2022-10-28T05:03:21.642Z,0.00
2022-10-28T05:04:21.594Z,0.00
2022-10-28T05:05:21.591Z,0.00
2022-10-28T05:06:21.587Z,0.00
2022-10-28T05:07:23.564Z,0.00
2022-10-28T05:08:21.578Z,0.00
2022-10-28T05:09:21.684Z,0.00
2022-10-28T05:10:21.558Z,0.00
2022-10-28T05:11:21.575Z,0.00
2022-10-28T05:12:21.554Z,0.00
2022-10-28T05:13:21.541Z,0.00
2022-10-28T05:14:21.544Z,0.00
2022-10-28T05:15:21.529Z,0.00
2022-10-28T05:16:21.540Z,0.00
2022-10-28T05:17:21.514Z,0.00
2022-10-28T05:18:21.543Z,0.00
2022-10-28T05:19:21.533Z,0.00
2022-10-28T05:20:21.506Z,0.00
2022-10-28T05:21:21.506Z,0.00
2022-10-28T05:22:21.478Z,0.00
2022-10-28T05:23:21.527Z,0.00
2022-10-28T05:24:21.497Z,0.00
2022-10-28T05:25:21.485Z,0.00
2022-10-28T05:26:21.727Z,0.00
2022-10-28T05:27:21.460Z,0.00
2022-10-28T05:28:21.459Z,0.00
2022-10-28T05:29:21.468Z,0.00
2022-10-28T05:30:21.631Z,0.00
2022-10-28T05:31:21.452Z,4.00
2022-10-28T05:32:21.450Z,0.00
2022-10-28T05:33:21.410Z,0.00
2022-10-28T05:34:21.394Z,4.00
2022-10-28T05:35:21.431Z,4.00
2022-10-28T05:36:21.369Z,4.00
2022-10-28T05:37:21.370Z,4.00
2022-10-28T05:38:21.395Z,8.00
2022-10-28T05:39:21.352Z,8.00
2022-10-28T05:40:21.389Z,8.00
2022-10-28T05:41:23.336Z,16.00
2022-10-28T05:42:21.356Z,16.00
2022-10-28T05:43:21.341Z,20.00
2022-10-28T05:44:21.335Z,24.00
2022-10-28T05:45:21.371Z,28.00
2022-10-28T05:46:21.296Z,32.00
2022-10-28T05:47:21.308Z,36.00
2022-10-28T05:48:21.301Z,48.00
2022-10-28T05:49:21.279Z,48.00
2022-10-28T05:50:21.319Z,60.00
2022-10-28T05:51:21.313Z,68.00
2022-10-28T05:52:21.299Z,72.00
2022-10-28T05:53:21.341Z,84.00
2022-10-28T05:54:21.256Z,92.00
2022-10-28T05:55:21.256Z,100.00
2022-10-28T05:56:21.236Z,112.00
2022-10-28T05:57:21.259Z,124.00
2022-10-28T05:58:21.244Z,136.00
2022-10-28T05:59:21.235Z,144.00
2022-10-28T06:00:21.208Z,160.00
2022-10-28T06:01:21.245Z,168.00
2022-10-28T06:02:21.195Z,184.00
2022-10-28T06:03:21.240Z,196.00
2022-10-28T06:04:21.181Z,208.00
2022-10-28T06:05:21.184Z,224.00
2022-10-28T06:06:21.161Z,240.00
2022-10-28T06:07:21.176Z,248.00
2022-10-28T06:08:21.160Z,264.00
2022-10-28T06:09:21.158Z,280.00
2022-10-28T06:10:21.161Z,292.00
2022-10-28T06:11:19.629Z,308.00
2022-10-28T06:12:19.667Z,328.00
2022-10-28T06:13:19.597Z,352.00
2022-10-28T06:14:19.802Z,372.00
2022-10-28T06:15:19.613Z,404.00
2022-10-28T06:16:19.569Z,440.00
2022-10-28T06:17:19.581Z,476.00
2022-10-28T06:18:19.553Z,524.00
2022-10-28T06:19:19.540Z,576.00
2022-10-28T06:20:19.551Z,644.00
2022-10-28T06:21:19.564Z,736.00
2022-10-28T06:22:19.525Z,872.00
2022-10-28T06:23:19.508Z,1000.00
2022-10-28T06:24:19.521Z,1064.00
2022-10-28T06:25:19.548Z,1180.00
2022-10-28T06:26:19.514Z,1368.00
2022-10-28T06:27:19.500Z,1680.00
2022-10-28T06:28:19.516Z,2276.00
2022-10-28T06:29:19.495Z,3216.00
2022-10-28T06:30:19.478Z,4408.00
2022-10-28T06:31:19.457Z,5540.00
2022-10-28T06:32:19.455Z,6376.00
2022-10-28T06:33:19.439Z,7200.00
2022-10-28T06:34:19.466Z,7680.00
2022-10-28T06:35:19.440Z,8108.00
2022-10-28T06:36:19.447Z,6744.00
2022-10-28T06:37:19.425Z,7320.00
2022-10-28T06:38:19.421Z,7820.00
2022-10-28T06:39:19.472Z,5420.00
2022-10-28T06:40:19.392Z,3712.00
2022-10-28T06:41:19.408Z,3540.00
2022-10-28T06:42:19.401Z,3776.00
2022-10-28T06:43:19.409Z,5236.00
2022-10-28T06:44:19.432Z,6876.00
2022-10-28T06:45:19.465Z,7864.00
2022-10-28T06:46:19.385Z,7836.00
2022-10-28T06:47:20.895Z,7920.00
2022-10-28T06:48:20.911Z,7780.00
2022-10-28T06:49:20.895Z,6640.00
2022-10-28T06:50:20.866Z,5464.00
2022-10-28T06:51:20.874Z,5608.00
2022-10-28T06:52:20.866Z,5940.00
2022-10-28T06:53:20.842Z,6180.00
2022-10-28T06:54:20.861Z,7320.00
2022-10-28T06:55:20.859Z,10104.00
2022-10-28T06:56:20.830Z,15168.00
2022-10-28T06:57:21.592Z,15904.00
2022-10-28T06:58:20.827Z,15872.00
2022-10-28T06:59:20.820Z,15232.00
2022-10-28T07:00:21.420Z,11172.00
2022-10-28T07:01:20.989Z,7164.00
2022-10-28T07:02:20.938Z,4924.00
2022-10-28T07:03:20.809Z,4308.00
2022-10-28T07:04:20.803Z,4148.00
2022-10-28T07:05:20.805Z,4372.00
2022-10-28T07:06:20.778Z,5792.00
2022-10-28T07:07:20.793Z,6692.00
2022-10-28T07:08:20.771Z,5232.00
2022-10-28T07:09:20.757Z,5956.00
2022-10-28T07:10:20.758Z,5592.00
2022-10-28T07:11:20.752Z,4656.00
2022-10-28T07:12:20.783Z,5600.00
2022-10-28T07:13:20.742Z,10232.00
2022-10-28T07:14:20.760Z,15392.00
2022-10-28T07:15:20.737Z,16480.00
2022-10-28T07:16:20.738Z,10236.00
2022-10-28T07:17:20.766Z,16960.00
2022-10-28T07:18:20.742Z,20160.00
2022-10-28T07:19:22.704Z,21408.00
2022-10-28T07:20:20.706Z,24416.00
2022-10-28T07:21:20.713Z,19584.00
2022-10-28T07:22:25.362Z,5312.00
2022-10-28T07:23:20.713Z,4088.00
2022-10-28T07:24:20.707Z,3800.00
2022-10-28T07:25:20.699Z,3380.00
2022-10-28T07:26:20.680Z,3244.00
2022-10-28T07:27:20.684Z,3352.00
2022-10-28T07:28:20.666Z,3104.00
2022-10-28T07:29:20.668Z,3024.00
2022-10-28T07:30:20.697Z,3024.00
2022-10-28T07:31:20.660Z,3056.00
2022-10-28T07:32:20.662Z,3112.00
2022-10-28T07:33:20.874Z,3192.00
2022-10-28T07:34:25.835Z,3264.00
2022-10-28T07:35:21.067Z,3356.00
2022-10-28T07:36:20.636Z,3408.00
2022-10-28T07:37:20.669Z,3432.00
2022-10-28T07:38:20.634Z,3452.00
2022-10-28T07:39:20.821Z,3476.00
2022-10-28T07:40:20.617Z,3580.00
2022-10-28T07:41:20.610Z,3608.00
2022-10-28T07:42:20.607Z,3700.00
2022-10-28T07:43:20.606Z,3796.00
2022-10-28T07:44:20.602Z,4016.00
2022-10-28T07:45:20.592Z,4088.00
2022-10-28T07:46:20.601Z,4020.00
2022-10-28T07:47:20.587Z,4036.00
2022-10-28T07:48:20.576Z,4212.00
2022-10-28T07:49:20.777Z,4276.00
2022-10-28T07:50:20.573Z,4280.00
2022-10-28T07:51:20.579Z,4548.00
2022-10-28T07:52:20.544Z,4764.00
2022-10-28T07:53:22.630Z,5496.00
2022-10-28T07:54:20.560Z,3344.00
2022-10-28T07:55:20.559Z,2732.00
2022-10-28T07:56:20.561Z,2448.00
2022-10-28T07:57:20.530Z,2284.00
2022-10-28T07:58:20.520Z,2092.00
2022-10-28T07:59:25.666Z,1900.00
2022-10-28T08:00:20.533Z,1788.00
2022-10-28T08:01:20.690Z,1700.00
2022-10-28T08:02:20.478Z,1624.00
2022-10-28T08:03:20.470Z,1576.00
2022-10-28T08:04:20.464Z,1536.00
2022-10-28T08:05:20.492Z,1532.00
2022-10-28T08:06:20.458Z,1528.00
2022-10-28T08:07:20.456Z,1524.00
2022-10-28T08:08:20.431Z,1548.00
2022-10-28T08:09:20.428Z,1608.00
2022-10-28T08:10:20.428Z,1628.00
2022-10-28T08:11:20.412Z,1672.00
2022-10-28T08:12:20.384Z,1688.00
2022-10-28T08:13:20.391Z,1700.00
2022-10-28T08:14:20.416Z,1672.00
2022-10-28T08:15:20.378Z,1620.00
2022-10-28T08:16:20.387Z,1556.00
2022-10-28T08:17:20.352Z,1492.00
2022-10-28T08:18:20.372Z,1416.00
2022-10-28T08:19:20.567Z,1312.00
2022-10-28T08:20:20.354Z,1228.00
2022-10-28T08:21:20.373Z,1168.00
2022-10-28T08:22:20.345Z,1132.00
2022-10-28T08:23:20.309Z,1128.00
2022-10-28T08:24:20.330Z,1144.00
2022-10-28T08:25:20.290Z,1172.00
2022-10-28T08:26:20.288Z,1224.00
2022-10-28T08:27:20.290Z,1280.00
2022-10-28T08:28:20.302Z,1356.00
2022-10-28T08:29:20.275Z,1448.00
2022-10-28T08:30:20.299Z,1520.00
2022-10-28T08:31:20.284Z,1576.00
2022-10-28T08:32:20.272Z,1612.00
2022-10-28T08:33:20.461Z,1712.00
2022-10-28T08:35:20.242Z,1756.00
2022-10-28T08:36:20.457Z,1624.00
2022-10-28T08:37:20.324Z,1472.00
2022-10-28T08:38:20.219Z,1360.00
2022-10-28T08:39:20.198Z,1288.00
2022-10-28T08:40:20.207Z,1248.00
2022-10-28T08:41:20.220Z,1224.00
2022-10-28T08:42:20.267Z,1212.00
2022-10-28T08:43:30.369Z,1212.00
2022-10-28T08:44:20.175Z,1188.00
2022-10-28T08:45:20.165Z,1172.00
2022-10-28T08:46:20.200Z,1164.00
2022-10-28T08:47:20.160Z,1172.00
2022-10-28T08:48:20.164Z,1172.00
2022-10-28T08:49:20.160Z,1180.00
2022-10-28T08:50:20.269Z,1208.00
2022-10-28T08:51:20.122Z,1248.00
2022-10-28T08:52:20.129Z,1320.00
2022-10-28T08:53:20.137Z,1396.00
2022-10-28T08:54:20.169Z,1504.00
2022-10-28T08:55:20.114Z,1628.00
2022-10-28T08:56:20.124Z,1732.00
2022-10-28T08:57:20.102Z,1880.00
2022-10-28T08:58:20.101Z,2232.00
2022-10-28T08:59:20.299Z,2464.00
2022-10-28T09:00:20.244Z,2752.00
2022-10-28T09:01:20.270Z,2980.00
2022-10-28T09:02:20.089Z,2948.00
2022-10-28T09:03:20.688Z,3124.00
2022-10-28T09:04:20.063Z,3292.00
2022-10-28T09:05:20.049Z,3492.00
2022-10-28T09:06:20.040Z,3700.00
2022-10-28T09:07:20.050Z,3956.00
2022-10-28T09:08:20.093Z,4592.00
2022-10-28T09:09:20.056Z,4880.00
2022-10-28T09:10:20.042Z,5148.00
2022-10-28T09:11:24.707Z,5556.00
2022-10-28T09:12:20.010Z,6600.00
2022-10-28T09:13:20.046Z,6304.00
2022-10-28T09:14:20.040Z,5920.00
2022-10-28T09:15:20.079Z,6376.00
2022-10-28T09:16:20.036Z,6180.00
2022-10-28T09:17:20.008Z,6160.00
2022-10-28T09:18:20.014Z,6256.00
2022-10-28T09:19:20.033Z,6436.00
2022-10-28T09:20:20.085Z,6996.00
2022-10-28T09:21:19.998Z,7512.00
2022-10-28T09:22:21.122Z,8732.00
2022-10-28T09:23:20.003Z,9152.00
2022-10-28T09:24:19.974Z,8860.00
2022-10-28T09:25:20.017Z,8628.00
2022-10-28T09:26:19.955Z,8524.00
2022-10-28T09:27:19.971Z,8428.00
2022-10-28T09:28:20.029Z,9608.00
2022-10-28T09:29:19.967Z,9852.00
2022-10-28T09:30:20.093Z,9220.00
2022-10-28T09:31:19.948Z,9292.00
2022-10-28T09:32:19.933Z,7744.00
2022-10-28T09:33:20.179Z,6976.00
2022-10-28T09:34:19.952Z,6576.00
2022-10-28T09:35:19.979Z,7388.00
2022-10-28T09:36:19.949Z,8944.00
2022-10-28T09:37:19.934Z,13112.00
2022-10-28T09:38:19.977Z,22304.00
2022-10-28T09:39:23.974Z,16576.00
2022-10-28T09:40:19.918Z,39584.00
2022-10-28T09:41:19.977Z,28512.00
2022-10-28T09:42:20.174Z,16160.00
2022-10-28T09:43:19.917Z,7308.00
2022-10-28T09:44:19.971Z,7880.00
2022-10-28T09:45:19.939Z,23328.00
2022-10-28T09:46:19.944Z,22144.00
2022-10-28T09:47:19.923Z,19136.00
2022-10-28T09:48:19.918Z,15432.00
2022-10-28T09:49:19.916Z,18208.00
2022-10-28T09:50:19.923Z,20864.00
2022-10-28T09:51:19.907Z,19328.00
2022-10-28T09:52:19.963Z,25568.00
2022-10-28T09:53:19.948Z,17696.00
2022-10-28T09:54:19.922Z,24672.00
2022-10-28T09:55:19.951Z,35840.00
2022-10-28T09:56:19.906Z,37248.00
2022-10-28T09:57:19.918Z,34976.00
2022-10-28T09:58:19.887Z,33088.00
2022-10-28T09:59:19.933Z,28128.00
2022-10-28T10:00:19.924Z,34624.00
2022-10-28T10:01:19.967Z,36672.00
2022-10-28T10:02:19.955Z,35424.00
2022-10-28T10:03:19.897Z,32416.00
2022-10-28T10:04:19.896Z,31840.00
2022-10-28T10:05:19.895Z,32576.00
2022-10-28T10:06:19.882Z,30336.00
2022-10-28T10:07:19.959Z,21280.00
2022-10-28T10:08:19.884Z,10596.00
2022-10-28T10:09:19.884Z,8240.00
2022-10-28T10:10:19.900Z,7908.00
2022-10-28T10:11:19.895Z,7892.00
2022-10-28T10:12:19.878Z,7708.00
2022-10-28T10:13:19.899Z,7564.00
2022-10-28T10:14:19.894Z,7332.00
2022-10-28T10:15:19.864Z,7304.00
2022-10-28T10:16:19.887Z,7196.00
2022-10-28T10:17:19.880Z,7140.00
2022-10-28T10:18:19.925Z,7112.00
2022-10-28T10:19:19.902Z,7072.00
2022-10-28T10:20:19.866Z,7016.00
2022-10-28T10:21:20.065Z,6924.00
2022-10-28T10:22:20.068Z,6880.00
2022-10-28T10:23:19.900Z,6836.00
2022-10-28T10:24:19.858Z,6308.00
2022-10-28T10:25:19.859Z,6704.00
2022-10-28T10:26:19.861Z,6736.00
2022-10-28T10:27:19.862Z,6720.00
2022-10-28T10:28:19.864Z,6004.00
2022-10-28T10:29:19.896Z,6444.00
2022-10-28T10:30:19.858Z,6260.00
2022-10-28T10:31:19.858Z,6056.00
2022-10-28T10:32:19.866Z,6016.00
2022-10-28T10:33:19.833Z,6116.00
2022-10-28T10:34:19.836Z,6088.00
2022-10-28T10:35:19.822Z,5992.00
2022-10-28T10:36:19.832Z,5980.00
2022-10-28T10:37:19.813Z,5808.00
2022-10-28T10:38:19.831Z,5652.00
2022-10-28T10:39:19.813Z,5428.00
2022-10-28T10:40:19.839Z,5200.00
2022-10-28T10:41:19.835Z,4412.00
2022-10-28T10:42:19.801Z,4476.00
2022-10-28T10:43:19.788Z,4272.00
2022-10-28T10:44:19.816Z,4272.00
2022-10-28T10:45:19.818Z,4208.00
2022-10-28T10:46:19.794Z,4076.00
2022-10-28T10:47:19.788Z,4428.00
2022-10-28T10:48:19.810Z,5480.00
2022-10-28T10:49:19.788Z,5580.00
2022-10-28T10:50:19.819Z,4904.00
2022-10-28T10:51:19.784Z,5248.00
2022-10-28T10:52:19.971Z,5112.00
2022-10-28T10:53:19.774Z,5900.00
2022-10-28T10:54:19.754Z,6056.00
2022-10-28T10:55:19.980Z,6284.00
2022-10-28T10:56:19.777Z,6340.00
2022-10-28T10:57:19.758Z,6324.00
2022-10-28T10:58:19.779Z,6104.00
2022-10-28T10:59:19.764Z,6224.00
2022-10-28T11:00:19.748Z,6056.00
2022-10-28T11:01:19.910Z,6048.00
2022-10-28T11:02:19.992Z,5780.00
2022-10-28T11:03:19.739Z,5804.00
2022-10-28T11:04:19.733Z,5720.00
2022-10-28T11:05:21.695Z,5728.00
2022-10-28T11:06:23.564Z,5424.00
2022-10-28T11:07:19.718Z,5348.00
2022-10-28T11:08:19.758Z,5364.00
2022-10-28T11:09:19.723Z,5344.00
2022-10-28T11:10:19.711Z,4880.00
2022-10-28T11:11:19.720Z,4676.00
2022-10-28T11:12:19.702Z,3588.00
2022-10-28T11:13:19.687Z,3444.00
2022-10-28T11:14:19.763Z,3468.00
2022-10-28T11:15:19.700Z,3256.00
2022-10-28T11:16:19.710Z,3152.00
2022-10-28T11:17:19.750Z,3092.00
2022-10-28T11:18:19.707Z,3084.00
2022-10-28T11:19:19.699Z,3052.00
2022-10-28T11:20:19.698Z,3116.00
2022-10-28T11:21:19.753Z,3172.00
2022-10-28T11:22:19.690Z,3244.00
2022-10-28T11:23:19.689Z,3252.00
2022-10-28T11:24:19.674Z,3268.00
2022-10-28T11:25:19.696Z,3236.00
2022-10-28T11:26:19.719Z,3184.00
2022-10-28T11:27:19.656Z,3148.00
2022-10-28T11:28:19.657Z,3116.00
2022-10-28T11:29:19.652Z,3064.00
2022-10-28T11:30:19.679Z,2984.00
2022-10-28T11:31:19.671Z,2940.00
2022-10-28T11:32:19.660Z,2928.00
2022-10-28T11:33:33.186Z,2872.00
2022-10-28T11:34:19.672Z,2788.00
2022-10-28T11:35:19.640Z,2720.00
2022-10-28T11:36:19.670Z,2692.00
2022-10-28T11:37:19.630Z,2668.00
2022-10-28T11:38:19.672Z,2608.00
2022-10-28T11:39:19.654Z,2544.00
2022-10-28T11:40:19.853Z,2436.00
2022-10-28T11:41:19.599Z,2328.00
2022-10-28T11:42:19.624Z,2268.00
2022-10-28T11:43:19.627Z,2216.00
2022-10-28T11:44:19.617Z,2176.00
2022-10-28T11:45:19.800Z,2112.00
2022-10-28T11:46:19.595Z,2044.00
2022-10-28T11:47:19.611Z,1980.00
2022-10-28T11:48:19.590Z,1932.00
2022-10-28T11:49:19.613Z,1912.00
2022-10-28T11:50:19.602Z,1892.00
2022-10-28T11:51:19.591Z,1872.00
2022-10-28T11:52:19.561Z,1848.00
2022-10-28T11:53:19.807Z,1820.00
2022-10-28T11:54:19.561Z,1808.00
2022-10-28T11:55:19.600Z,1796.00
2022-10-28T11:56:19.587Z,1788.00
2022-10-28T11:57:19.773Z,1768.00
2022-10-28T11:58:19.603Z,1772.00
2022-10-28T11:59:19.545Z,1752.00
2022-10-28T12:00:19.555Z,1744.00
2022-10-28T12:01:19.643Z,1744.00
2022-10-28T12:02:19.777Z,1756.00
2022-10-28T12:03:19.826Z,1748.00
2022-10-28T12:04:19.737Z,1736.00
2022-10-28T12:05:19.549Z,1712.00
2022-10-28T12:06:20.166Z,1688.00
2022-10-28T12:07:19.548Z,1668.00
2022-10-28T12:08:19.542Z,1668.00
2022-10-28T12:09:19.560Z,1672.00
2022-10-28T12:10:19.547Z,1688.00
2022-10-28T12:11:19.502Z,1716.00
2022-10-28T12:12:19.725Z,1764.00
2022-10-28T12:13:19.531Z,1824.00
2022-10-28T12:14:19.533Z,1864.00
2022-10-28T12:15:19.513Z,1872.00
2022-10-28T12:16:19.523Z,1852.00
2022-10-28T12:17:19.497Z,1816.00
2022-10-28T12:18:19.471Z,1792.00
2022-10-28T12:19:19.495Z,1776.00
2022-10-28T12:20:19.482Z,1772.00
2022-10-28T12:21:19.647Z,1784.00
2022-10-28T12:22:19.487Z,1784.00
2022-10-28T12:23:19.678Z,1776.00
2022-10-28T12:24:19.452Z,1768.00
2022-10-28T12:25:19.486Z,1752.00
2022-10-28T12:26:19.457Z,1728.00
2022-10-28T12:27:19.437Z,1708.00
2022-10-28T12:28:19.435Z,1692.00
2022-10-28T12:29:19.436Z,1688.00
2022-10-28T12:30:19.431Z,1708.00
2022-10-28T12:31:19.435Z,1736.00
2022-10-28T12:32:19.425Z,1772.00
2022-10-28T12:33:19.410Z,1812.00
2022-10-28T12:34:19.402Z,1856.00
2022-10-28T12:35:19.407Z,1908.00
2022-10-28T12:36:19.437Z,1976.00
2022-10-28T12:37:19.419Z,2040.00
2022-10-28T12:38:19.422Z,2088.00
2022-10-28T12:39:19.406Z,2132.00
2022-10-28T12:40:19.419Z,2192.00